sensor_id;sensor_type;location;lat;lon;timestamp;pressure;altitude;pressure_sealevel;temperature;humidity
63321;BME280;49449;48.800;9.534;2023-04-03T00:00:58;99303.88;;;5.33;36.90
63321;BME280;49449;48.800;9.534;2023-04-03T00:03:26;99298.16;;;5.29;37.13
63321;BME280;49449;48.800;9.534;2023-04-03T00:05:54;99298.97;;;5.30;37.27
63321;BME280;49449;48.800;9.534;2023-04-03T00:08:22;99297.03;;;5.32;36.67
63321;BME280;49449;48.800;9.534;2023-04-03T00:10:50;99293.56;;;5.31;37.08
63321;BME280;49449;48.800;9.534;2023-04-03T00:13:19;99298.50;;;5.26;36.94
63321;BME280;49449;48.800;9.534;2023-04-03T00:15:47;99297.06;;;5.24;37.20
63321;BME280;49449;48.800;9.534;2023-04-03T00:18:15;99305.72;;;5.24;37.44
63321;BME280;49449;48.800;9.534;2023-04-03T00:20:43;99303.47;;;5.21;37.19
63321;BME280;49449;48.800;9.534;2023-04-03T00:23:10;99309.06;;;5.18;38.03
63321;BME280;49449;48.800;9.534;2023-04-03T00:25:38;99311.34;;;5.21;37.16
63321;BME280;49449;48.800;9.534;2023-04-03T00:28:06;99309.34;;;5.23;36.67
63321;BME280;49449;48.800;9.534;2023-04-03T00:30:35;99307.53;;;5.24;36.81
63321;BME280;49449;48.800;9.534;2023-04-03T00:33:03;99301.78;;;5.28;36.18
63321;BME280;49449;48.800;9.534;2023-04-03T00:35:31;99301.78;;;5.28;36.42
63321;BME280;49449;48.800;9.534;2023-04-03T00:37:59;99308.88;;;5.20;35.87
63321;BME280;49449;48.800;9.534;2023-04-03T00:40:27;99310.03;;;5.17;36.48
63321;BME280;49449;48.800;9.534;2023-04-03T00:43:01;99304.97;;;5.16;36.19
63321;BME280;49449;48.800;9.534;2023-04-03T00:45:35;99315.09;;;5.19;36.25
63321;BME280;49449;48.800;9.534;2023-04-03T00:48:05;99301.03;;;5.20;36.44
63321;BME280;49449;48.800;9.534;2023-04-03T00:50:38;99309.34;;;5.23;36.31
63321;BME280;49449;48.800;9.534;2023-04-03T00:53:09;99305.91;;;5.23;36.26
63321;BME280;49449;48.800;9.534;2023-04-03T00:55:39;99303.09;;;5.24;36.41
63321;BME280;49449;48.800;9.534;2023-04-03T00:58:07;99310.34;;;5.22;36.26
63321;BME280;49449;48.800;9.534;2023-04-03T01:00:39;99309.34;;;5.23;36.38
63321;BME280;49449;48.800;9.534;2023-04-03T01:03:07;99302.94;;;5.26;36.43
63321;BME280;49449;48.800;9.534;2023-04-03T01:05:35;99300.50;;;5.24;36.66
63321;BME280;49449;48.800;9.534;2023-04-03T01:08:03;99304.13;;;5.23;36.83
63321;BME280;49449;48.800;9.534;2023-04-03T01:10:31;99307.53;;;5.24;36.42
63321;BME280;49449;48.800;9.534;2023-04-03T01:12:59;99307.03;;;5.28;36.00
63321;BME280;49449;48.800;9.534;2023-04-03T01:15:27;99306.72;;;5.23;36.01
63321;BME280;49449;48.800;9.534;2023-04-03T01:17:58;99310.38;;;5.14;36.10
63321;BME280;49449;48.800;9.534;2023-04-03T01:23:46;99322.72;;;5.05;35.70
63321;BME280;49449;48.800;9.534;2023-04-03T01:26:18;99312.88;;;5.07;36.08
63321;BME280;49449;48.800;9.534;2023-04-03T01:28:46;99318.00;;;5.01;35.98
63321;BME280;49449;48.800;9.534;2023-04-03T01:31:19;99314.59;;;4.92;35.77
63321;BME280;49449;48.800;9.534;2023-04-03T01:33:49;99316.41;;;4.91;35.99
63321;BME280;49449;48.800;9.534;2023-04-03T01:36:20;99309.53;;;4.90;35.90
63321;BME280;49449;48.800;9.534;2023-04-03T01:38:48;99308.47;;;4.68;36.02
63321;BME280;49449;48.800;9.534;2023-04-03T01:41:16;99309.25;;;4.77;35.96
63321;BME280;49449;48.800;9.534;2023-04-03T01:43:44;99312.81;;;4.84;35.83
63321;BME280;49449;48.800;9.534;2023-04-03T01:46:12;99315.91;;;4.88;35.67
63321;BME280;49449;48.800;9.534;2023-04-03T01:48:40;99312.63;;;4.94;35.06
63321;BME280;49449;48.800;9.534;2023-04-03T01:51:09;99309.53;;;4.82;35.44
63321;BME280;49449;48.800;9.534;2023-04-03T01:53:37;99316.75;;;4.80;35.81
63321;BME280;49449;48.800;9.534;2023-04-03T01:56:05;99314.84;;;4.66;35.99
63321;BME280;49449;48.800;9.534;2023-04-03T01:58:33;99312.53;;;4.71;36.29
63321;BME280;49449;48.800;9.534;2023-04-03T02:01:01;99311.25;;;4.67;36.49
63321;BME280;49449;48.800;9.534;2023-04-03T02:03:29;99318.09;;;4.68;36.70
63321;BME280;49449;48.800;9.534;2023-04-03T02:05:57;99319.75;;;4.69;36.61
63321;BME280;49449;48.800;9.534;2023-04-03T02:08:26;99330.38;;;4.75;36.33
63321;BME280;49449;48.800;9.534;2023-04-03T02:10:54;99323.09;;;4.86;36.15
63321;BME280;49449;48.800;9.534;2023-04-03T02:13:21;99324.28;;;4.91;36.24
63321;BME280;49449;48.800;9.534;2023-04-03T02:15:49;99328.16;;;4.95;36.04
63321;BME280;49449;48.800;9.534;2023-04-03T02:18:17;99326.66;;;5.01;35.37
63321;BME280;49449;48.800;9.534;2023-04-03T02:20:46;99326.50;;;5.03;34.97
63321;BME280;49449;48.800;9.534;2023-04-03T02:23:14;99321.59;;;5.00;34.59
63321;BME280;49449;48.800;9.534;2023-04-03T02:25:43;99328.25;;;5.10;34.51
63321;BME280;49449;48.800;9.534;2023-04-03T02:28:11;99323.38;;;5.07;34.24
63321;BME280;49449;48.800;9.534;2023-04-03T02:30:39;99326.72;;;4.93;34.56
63321;BME280;49449;48.800;9.534;2023-04-03T02:33:07;99323.47;;;4.83;34.96
63321;BME280;49449;48.800;9.534;2023-04-03T02:35:35;99323.94;;;4.86;35.04
63321;BME280;49449;48.800;9.534;2023-04-03T02:38:03;99326.03;;;4.99;34.99
63321;BME280;49449;48.800;9.534;2023-04-03T02:40:31;99321.25;;;5.03;35.01
63321;BME280;49449;48.800;9.534;2023-04-03T02:43:00;99323.38;;;5.07;34.79
63321;BME280;49449;48.800;9.534;2023-04-03T02:45:28;99327.09;;;5.13;34.69
63321;BME280;49449;48.800;9.534;2023-04-03T02:47:55;99332.63;;;5.18;34.99
63321;BME280;49449;48.800;9.534;2023-04-03T02:50:23;99334.25;;;5.19;34.90
63321;BME280;49449;48.800;9.534;2023-04-03T02:52:51;99335.72;;;5.22;34.54
63321;BME280;49449;48.800;9.534;2023-04-03T02:55:19;99331.63;;;5.19;34.68
63321;BME280;49449;48.800;9.534;2023-04-03T02:57:46;99339.41;;;5.04;35.18
63321;BME280;49449;48.800;9.534;2023-04-03T03:00:16;99336.09;;;5.10;34.76
63321;BME280;49449;48.800;9.534;2023-04-03T03:02:44;99333.13;;;5.13;34.92
63321;BME280;49449;48.800;9.534;2023-04-03T03:05:12;99333.00;;;5.07;34.97
63321;BME280;49449;48.800;9.534;2023-04-03T03:07:39;99332.34;;;5.13;34.96
63321;BME280;49449;48.800;9.534;2023-04-03T03:10:08;99327.41;;;5.18;34.85
63321;BME280;49449;48.800;9.534;2023-04-03T03:12:36;99335.09;;;5.20;34.77
63321;BME280;49449;48.800;9.534;2023-04-03T03:15:04;99336.19;;;5.25;34.73
63321;BME280;49449;48.800;9.534;2023-04-03T03:17:34;99335.00;;;5.28;34.82
63321;BME280;49449;48.800;9.534;2023-04-03T03:20:02;99327.16;;;5.28;34.71
63321;BME280;49449;48.800;9.534;2023-04-03T03:22:30;99333.69;;;5.32;34.77
63321;BME280;49449;48.800;9.534;2023-04-03T03:24:58;99327.13;;;5.36;34.65
63321;BME280;49449;48.800;9.534;2023-04-03T03:27:26;99330.38;;;5.38;34.29
63321;BME280;49449;48.800;9.534;2023-04-03T03:29:54;99320.69;;;5.39;34.38
63321;BME280;49449;48.800;9.534;2023-04-03T03:32:21;99319.88;;;5.38;34.51
63321;BME280;49449;48.800;9.534;2023-04-03T03:34:50;99328.75;;;5.37;34.75
63321;BME280;49449;48.800;9.534;2023-04-03T03:37:18;99318.28;;;5.37;34.74
63321;BME280;49449;48.800;9.534;2023-04-03T03:39:46;99322.50;;;5.38;34.78
63321;BME280;49449;48.800;9.534;2023-04-03T03:42:14;99318.53;;;5.42;34.57
63321;BME280;49449;48.800;9.534;2023-04-03T03:44:42;99320.81;;;5.45;34.36
63321;BME280;49449;48.800;9.534;2023-04-03T03:47:09;99319.22;;;5.44;34.39
63321;BME280;49449;48.800;9.534;2023-04-03T03:49:37;99314.31;;;5.41;34.12
63321;BME280;49449;48.800;9.534;2023-04-03T03:52:07;99321.81;;;5.44;33.90
63321;BME280;49449;48.800;9.534;2023-04-03T03:54:37;99322.81;;;5.43;33.87
63321;BME280;49449;48.800;9.534;2023-04-03T03:57:05;99320.94;;;5.29;33.66
63321;BME280;49449;48.800;9.534;2023-04-03T03:59:32;99330.41;;;5.30;34.22
63321;BME280;49449;48.800;9.534;2023-04-03T04:02:00;99319.88;;;5.38;34.29
63321;BME280;49449;48.800;9.534;2023-04-03T04:04:28;99321.28;;;5.26;33.80
63321;BME280;49449;48.800;9.534;2023-04-03T04:06:56;99316.38;;;5.23;34.40
63321;BME280;49449;48.800;9.534;2023-04-03T04:09:25;99318.81;;;5.24;36.40
63321;BME280;49449;48.800;9.534;2023-04-03T04:11:53;99318.81;;;5.24;34.62
63321;BME280;49449;48.800;9.534;2023-04-03T04:14:21;99320.13;;;5.28;34.13
63321;BME280;49449;48.800;9.534;2023-04-03T04:16:49;99315.41;;;5.24;34.14
63321;BME280;49449;48.800;9.534;2023-04-03T04:19:17;99318.53;;;5.19;33.24
63321;BME280;49449;48.800;9.534;2023-04-03T04:21:45;99319.88;;;5.15;33.90
63321;BME280;49449;48.800;9.534;2023-04-03T04:24:13;99314.75;;;5.22;33.94
63321;BME280;49449;48.800;9.534;2023-04-03T04:26:42;99310.19;;;5.16;34.09
63321;BME280;49449;48.800;9.534;2023-04-03T04:29:10;99322.28;;;5.25;33.94
63321;BME280;49449;48.800;9.534;2023-04-03T04:31:37;99321.75;;;5.29;34.17
63321;BME280;49449;48.800;9.534;2023-04-03T04:34:06;99320.59;;;5.32;34.26
63321;BME280;49449;48.800;9.534;2023-04-03T04:36:33;99316.63;;;5.36;34.57
63321;BME280;49449;48.800;9.534;2023-04-03T04:39:01;99320.91;;;5.37;34.63
63321;BME280;49449;48.800;9.534;2023-04-03T04:41:29;99318.91;;;5.39;34.32
63321;BME280;49449;48.800;9.534;2023-04-03T04:43:58;99328.94;;;5.36;33.94
63321;BME280;49449;48.800;9.534;2023-04-03T04:46:26;99318.91;;;5.39;33.83
63321;BME280;49449;48.800;9.534;2023-04-03T04:48:54;99325.31;;;5.37;33.85
63321;BME280;49449;48.800;9.534;2023-04-03T04:51:22;99329.91;;;5.35;34.04
63321;BME280;49449;48.800;9.534;2023-04-03T04:53:49;99330.72;;;5.35;34.20
63321;BME280;49449;48.800;9.534;2023-04-03T04:56:18;99330.53;;;5.37;34.07
63321;BME280;49449;48.800;9.534;2023-04-03T04:58:45;99323.97;;;5.41;34.39
63321;BME280;49449;48.800;9.534;2023-04-03T05:01:14;99330.38;;;5.38;33.80
63321;BME280;49449;48.800;9.534;2023-04-03T05:03:42;99337.13;;;5.32;34.00
63321;BME280;49449;48.800;9.534;2023-04-03T05:06:10;99337.44;;;5.38;33.88
63321;BME280;49449;48.800;9.534;2023-04-03T05:08:37;99346.25;;;5.37;34.29
63321;BME280;49449;48.800;9.534;2023-04-03T05:11:05;99339.59;;;5.34;34.09
63321;BME280;49449;48.800;9.534;2023-04-03T05:13:33;99345.00;;;5.32;33.95
63321;BME280;49449;48.800;9.534;2023-04-03T05:16:01;99346.34;;;5.28;33.88
63321;BME280;49449;48.800;9.534;2023-04-03T05:18:30;99341.09;;;5.28;33.61
63321;BME280;49449;48.800;9.534;2023-04-03T05:20:58;99352.84;;;5.32;33.46
63321;BME280;49449;48.800;9.534;2023-04-03T05:23:26;99358.25;;;5.31;33.68
63321;BME280;49449;48.800;9.534;2023-04-03T05:25:54;99358.13;;;5.24;33.80
63321;BME280;49449;48.800;9.534;2023-04-03T05:28:22;99357.63;;;5.29;33.71
63321;BME280;49449;48.800;9.534;2023-04-03T05:30:53;99359.25;;;5.30;33.61
63321;BME280;49449;48.800;9.534;2023-04-03T05:33:21;99361.69;;;5.31;33.36
63321;BME280;49449;48.800;9.534;2023-04-03T05:35:51;99359.75;;;5.33;33.24
63321;BME280;49449;48.800;9.534;2023-04-03T05:38:19;99362.53;;;5.32;33.29
63321;BME280;49449;48.800;9.534;2023-04-03T05:40:46;99361.53;;;5.33;33.35
63321;BME280;49449;48.800;9.534;2023-04-03T05:43:14;99356.56;;;5.38;33.14
63321;BME280;49449;48.800;9.534;2023-04-03T05:45:42;99358.84;;;5.41;32.89
63321;BME280;49449;48.800;9.534;2023-04-03T05:48:11;99367.69;;;5.40;33.25
63321;BME280;49449;48.800;9.534;2023-04-03T05:50:39;99362.13;;;5.43;33.18
63321;BME280;49449;48.800;9.534;2023-04-03T05:53:15;99371.78;;;5.43;33.50
63321;BME280;49449;48.800;9.534;2023-04-03T05:55:45;99367.03;;;5.46;33.12
63321;BME280;49449;48.800;9.534;2023-04-03T05:58:12;99364.91;;;5.42;32.30
63321;BME280;49449;48.800;9.534;2023-04-03T06:00:40;99370.31;;;5.40;32.39
63321;BME280;49449;48.800;9.534;2023-04-03T06:03:08;99384.25;;;5.41;32.75
63321;BME280;49449;48.800;9.534;2023-04-03T06:05:36;99380.00;;;5.40;32.64
63321;BME280;49449;48.800;9.534;2023-04-03T06:08:03;99376.72;;;5.38;32.04
63321;BME280;49449;48.800;9.534;2023-04-03T06:10:33;99379.22;;;5.31;31.48
63321;BME280;49449;48.800;9.534;2023-04-03T06:13:01;99384.16;;;5.26;31.93
63321;BME280;49449;48.800;9.534;2023-04-03T06:15:29;99384.16;;;5.26;32.83
63321;BME280;49449;48.800;9.534;2023-04-03T06:17:57;99385.09;;;5.33;32.95
63321;BME280;49449;48.800;9.534;2023-04-03T06:20:25;99384.88;;;5.20;32.88
63321;BME280;49449;48.800;9.534;2023-04-03T06:22:53;99383.34;;;5.25;32.64
63321;BME280;49449;48.800;9.534;2023-04-03T06:25:20;99387.41;;;5.28;32.52
63321;BME280;49449;48.800;9.534;2023-04-03T06:27:49;99390.28;;;5.18;33.09
63321;BME280;49449;48.800;9.534;2023-04-03T06:30:17;99392.81;;;5.26;32.84
63321;BME280;49449;48.800;9.534;2023-04-03T06:32:45;99394.13;;;5.30;33.01
63321;BME280;49449;48.800;9.534;2023-04-03T06:35:13;99395.97;;;5.22;32.94
63321;BME280;49449;48.800;9.534;2023-04-03T06:37:41;99392.34;;;5.23;33.52
63321;BME280;49449;48.800;9.534;2023-04-03T06:40:15;99389.53;;;5.32;33.84
63321;BME280;49449;48.800;9.534;2023-04-03T06:42:46;99403.28;;;5.35;33.47
63321;BME280;49449;48.800;9.534;2023-04-03T06:45:15;99399.31;;;5.39;33.25
63321;BME280;49449;48.800;9.534;2023-04-03T06:47:43;99403.44;;;5.33;33.49
63321;BME280;49449;48.800;9.534;2023-04-03T06:50:12;99400.81;;;5.33;33.16
63321;BME280;49449;48.800;9.534;2023-04-03T06:52:41;99401.94;;;5.39;33.16
63321;BME280;49449;48.800;9.534;2023-04-03T06:55:09;99399.31;;;5.39;33.62
63321;BME280;49449;48.800;9.534;2023-04-03T06:57:37;99405.09;;;5.34;33.62
63321;BME280;49449;48.800;9.534;2023-04-03T07:00:06;99402.59;;;5.41;33.42
63321;BME280;49449;48.800;9.534;2023-04-03T07:02:36;99407.94;;;5.47;33.80
63321;BME280;49449;48.800;9.534;2023-04-03T07:05:05;99406.91;;;5.33;33.23
63321;BME280;49449;48.800;9.534;2023-04-03T07:07:33;99412.47;;;5.30;33.41
63321;BME280;49449;48.800;9.534;2023-04-03T07:10:01;99413.78;;;5.26;33.91
63321;BME280;49449;48.800;9.534;2023-04-03T07:12:29;99415.25;;;5.37;33.75
63321;BME280;49449;48.800;9.534;2023-04-03T07:14:56;99421.59;;;5.03;33.69
63321;BME280;49449;48.800;9.534;2023-04-03T07:17:24;99427.44;;;5.13;33.97
63321;BME280;49449;48.800;9.534;2023-04-03T07:19:54;99434.94;;;5.25;34.14
63321;BME280;49449;48.800;9.534;2023-04-03T07:22:22;99420.53;;;5.21;33.84
63321;BME280;49449;48.800;9.534;2023-04-03T07:24:50;99420.97;;;5.32;34.00
63321;BME280;49449;48.800;9.534;2023-04-03T07:27:18;99429.50;;;5.26;34.51
63321;BME280;49449;48.800;9.534;2023-04-03T07:29:46;99426.00;;;5.42;34.28
63321;BME280;49449;48.800;9.534;2023-04-03T07:32:15;99430.69;;;5.24;34.12
63321;BME280;49449;48.800;9.534;2023-04-03T07:34:44;99422.09;;;5.38;34.40
63321;BME280;49449;48.800;9.534;2023-04-03T07:37:13;99428.22;;;5.22;33.87
63321;BME280;49449;48.800;9.534;2023-04-03T07:39:43;99432.13;;;5.26;34.17
63321;BME280;49449;48.800;9.534;2023-04-03T07:42:11;99422.06;;;5.46;34.46
63321;BME280;49449;48.800;9.534;2023-04-03T07:44:39;99429.34;;;5.59;34.86
63321;BME280;49449;48.800;9.534;2023-04-03T07:47:07;99441.44;;;5.37;34.41
63321;BME280;49449;48.800;9.534;2023-04-03T07:49:35;99443.53;;;5.42;34.17
63321;BME280;49449;48.800;9.534;2023-04-03T07:52:06;99437.38;;;5.26;34.69
63321;BME280;49449;48.800;9.534;2023-04-03T07:54:38;99438.53;;;5.24;33.94
63321;BME280;49449;48.800;9.534;2023-04-03T07:57:06;99444.16;;;5.12;34.07
63321;BME280;49449;48.800;9.534;2023-04-03T07:59:34;99443.81;;;5.16;34.49
63321;BME280;49449;48.800;9.534;2023-04-03T08:02:02;99445.59;;;5.23;34.05
63321;BME280;49449;48.800;9.534;2023-04-03T08:04:31;99451.81;;;5.22;33.75
63321;BME280;49449;48.800;9.534;2023-04-03T08:06:59;99438.94;;;5.44;34.89
63321;BME280;49449;48.800;9.534;2023-04-03T08:09:26;99441.00;;;5.57;35.91
63321;BME280;49449;48.800;9.534;2023-04-03T08:11:56;99440.34;;;5.55;34.37
63321;BME280;49449;48.800;9.534;2023-04-03T08:14:23;99438.16;;;5.66;33.39
63321;BME280;49449;48.800;9.534;2023-04-03T08:16:51;99449.09;;;5.39;33.24
63321;BME280;49449;48.800;9.534;2023-04-03T08:19:19;99450.78;;;5.31;33.47
63321;BME280;49449;48.800;9.534;2023-04-03T08:21:51;99444.41;;;5.34;34.14
63321;BME280;49449;48.800;9.534;2023-04-03T08:24:19;99443.81;;;5.16;33.80
63321;BME280;49449;48.800;9.534;2023-04-03T08:26:47;99450.22;;;5.05;33.78
63321;BME280;49449;48.800;9.534;2023-04-03T08:29:16;99455.34;;;4.90;34.13
63321;BME280;49449;48.800;9.534;2023-04-03T08:31:44;99452.84;;;5.05;34.50
63321;BME280;49449;48.800;9.534;2023-04-03T08:34:12;99444.88;;;5.38;34.60
63321;BME280;49449;48.800;9.534;2023-04-03T08:36:40;99440.34;;;5.55;34.24
63321;BME280;49449;48.800;9.534;2023-04-03T08:39:09;99449.16;;;5.30;34.02
63321;BME280;49449;48.800;9.534;2023-04-03T08:41:38;99444.88;;;5.38;34.70
63321;BME280;49449;48.800;9.534;2023-04-03T08:44:24;99434.75;;;5.58;33.62
63321;BME280;49449;48.800;9.534;2023-04-03T08:47:02;99439.84;;;5.59;33.89
63321;BME280;49449;48.800;9.534;2023-04-03T08:49:33;99445.75;;;5.84;32.90
63321;BME280;49449;48.800;9.534;2023-04-03T08:52:07;99444.25;;;6.13;33.12
63321;BME280;49449;48.800;9.534;2023-04-03T08:54:42;99442.16;;;6.23;32.71
63321;BME280;49449;48.800;9.534;2023-04-03T08:57:14;99439.84;;;6.05;32.80
63321;BME280;49449;48.800;9.534;2023-04-03T08:59:44;99437.00;;;6.15;32.93
63321;BME280;49449;48.800;9.534;2023-04-03T09:02:24;99447.44;;;6.00;32.70
63321;BME280;49449;48.800;9.534;2023-04-03T09:04:52;99445.47;;;6.02;32.31
63321;BME280;49449;48.800;9.534;2023-04-03T09:07:30;99442.06;;;6.17;32.70
63321;BME280;49449;48.800;9.534;2023-04-03T09:10:00;99447.72;;;6.05;32.13
63321;BME280;49449;48.800;9.534;2023-04-03T09:12:34;99451.41;;;5.96;32.11
63321;BME280;49449;48.800;9.534;2023-04-03T09:15:14;99458.75;;;6.01;31.86
63321;BME280;49449;48.800;9.534;2023-04-03T09:17:53;99449.66;;;5.88;31.98
63321;BME280;49449;48.800;9.534;2023-04-03T09:20:29;99450.06;;;6.00;30.86
63321;BME280;49449;48.800;9.534;2023-04-03T09:22:58;99448.25;;;5.78;31.84
63321;BME280;49449;48.800;9.534;2023-04-03T09:25:27;99450.88;;;5.78;32.60
63321;BME280;49449;48.800;9.534;2023-04-03T09:27:58;99460.69;;;5.52;32.80
63321;BME280;49449;48.800;9.534;2023-04-03T09:30:28;99441.47;;;5.60;32.21
63321;BME280;49449;48.800;9.534;2023-04-03T09:32:56;99450.34;;;5.82;31.75
63321;BME280;49449;48.800;9.534;2023-04-03T09:35:26;99450.47;;;6.12;31.78
63321;BME280;49449;48.800;9.534;2023-04-03T09:38:01;99441.97;;;6.10;32.61
63321;BME280;49449;48.800;9.534;2023-04-03T09:40:42;99449.66;;;6.12;33.09
63321;BME280;49449;48.800;9.534;2023-04-03T09:43:22;99449.88;;;6.02;32.05
63321;BME280;49449;48.800;9.534;2023-04-03T09:45:53;99443.75;;;5.86;31.14
63321;BME280;49449;48.800;9.534;2023-04-03T09:48:23;99444.69;;;5.70;32.00
63321;BME280;49449;48.800;9.534;2023-04-03T09:50:59;99450.50;;;5.58;31.92
63321;BME280;49449;48.800;9.534;2023-04-03T09:53:31;99454.19;;;5.40;32.02
63321;BME280;49449;48.800;9.534;2023-04-03T09:56:00;99450.59;;;5.41;32.07
63321;BME280;49449;48.800;9.534;2023-04-03T09:58:31;99445.22;;;5.66;31.95
63321;BME280;49449;48.800;9.534;2023-04-03T10:01:20;99450.22;;;5.76;32.67
63321;BME280;49449;48.800;9.534;2023-04-03T10:04:06;99449.00;;;5.86;31.65
63321;BME280;49449;48.800;9.534;2023-04-03T10:06:36;99449.97;;;5.94;32.85
63321;BME280;49449;48.800;9.534;2023-04-03T10:09:17;99442.34;;;5.76;31.97
63321;BME280;49449;48.800;9.534;2023-04-03T10:12:07;99438.28;;;5.73;32.14
63321;BME280;49449;48.800;9.534;2023-04-03T10:14:37;99441.66;;;5.82;32.32
63321;BME280;49449;48.800;9.534;2023-04-03T10:17:15;99443.81;;;5.55;31.29
63321;BME280;49449;48.800;9.534;2023-04-03T10:19:48;99434.94;;;5.79;31.86
63321;BME280;49449;48.800;9.534;2023-04-03T10:22:24;99437.22;;;6.05;31.69
63321;BME280;49449;48.800;9.534;2023-04-03T10:25:03;99425.88;;;6.13;32.15
63321;BME280;49449;48.800;9.534;2023-04-03T10:27:43;99432.44;;;6.09;31.19
63321;BME280;49449;48.800;9.534;2023-04-03T10:30:27;99427.44;;;6.22;30.48
63321;BME280;49449;48.800;9.534;2023-04-03T10:33:08;99433.13;;;6.26;31.35
63321;BME280;49449;48.800;9.534;2023-04-03T10:35:44;99427.94;;;6.41;31.29
63321;BME280;49449;48.800;9.534;2023-04-03T10:38:19;99425.72;;;6.30;29.53
63321;BME280;49449;48.800;9.534;2023-04-03T10:40:52;99431.69;;;6.46;29.85
63321;BME280;49449;48.800;9.534;2023-04-03T10:43:29;99420.72;;;6.58;30.49
63321;BME280;49449;48.800;9.534;2023-04-03T10:46:02;99423.25;;;6.36;29.01
63321;BME280;49449;48.800;9.534;2023-04-03T10:48:40;99423.88;;;6.38;29.67
63321;BME280;49449;48.800;9.534;2023-04-03T10:51:19;99422.78;;;6.33;28.40
63321;BME280;49449;48.800;9.534;2023-04-03T10:53:52;99415.56;;;6.50;30.41
63321;BME280;49449;48.800;9.534;2023-04-03T10:56:30;99420.63;;;6.51;28.05
63321;BME280;49449;48.800;9.534;2023-04-03T10:59:02;99418.91;;;6.43;27.69
63321;BME280;49449;48.800;9.534;2023-04-03T11:01:38;99422.13;;;6.07;26.98
63321;BME280;49449;48.800;9.534;2023-04-03T11:04:09;99416.19;;;6.37;28.04
63321;BME280;49449;48.800;9.534;2023-04-03T11:06:41;99413.09;;;6.33;28.84
63321;BME280;49449;48.800;9.534;2023-04-03T11:09:19;99409.84;;;6.46;28.34
63321;BME280;49449;48.800;9.534;2023-04-03T11:11:51;99418.09;;;6.43;27.90
63321;BME280;49449;48.800;9.534;2023-04-03T11:14:26;99414.94;;;6.24;29.11
63321;BME280;49449;48.800;9.534;2023-04-03T11:17:04;99414.69;;;5.96;27.95
63321;BME280;49449;48.800;9.534;2023-04-03T11:19:39;99407.84;;;6.10;28.66
63321;BME280;49449;48.800;9.534;2023-04-03T11:22:16;99418.56;;;6.00;29.03
63321;BME280;49449;48.800;9.534;2023-04-03T11:24:56;99407.28;;;6.00;29.02
63321;BME280;49449;48.800;9.534;2023-04-03T11:27:26;99411.56;;;6.16;30.18
63321;BME280;49449;48.800;9.534;2023-04-03T11:29:57;99410.31;;;6.12;28.42
63321;BME280;49449;48.800;9.534;2023-04-03T11:32:48;99402.25;;;6.13;28.47
63321;BME280;49449;48.800;9.534;2023-04-03T11:35:23;99407.34;;;6.15;28.91
63321;BME280;49449;48.800;9.534;2023-04-03T11:37:53;99412.81;;;5.82;27.57
63321;BME280;49449;48.800;9.534;2023-04-03T11:40:24;99420.34;;;5.85;29.09
63321;BME280;49449;48.800;9.534;2023-04-03T11:42:54;99411.00;;;5.82;28.33
63321;BME280;49449;48.800;9.534;2023-04-03T11:45:32;99407.47;;;5.44;29.34
63321;BME280;49449;48.800;9.534;2023-04-03T11:48:02;99411.31;;;5.87;28.62
63321;BME280;49449;48.800;9.534;2023-04-03T11:50:40;99403.78;;;5.84;28.63
63321;BME280;49449;48.800;9.534;2023-04-03T11:53:27;99397.91;;;5.59;27.92
63321;BME280;49449;48.800;9.534;2023-04-03T11:55:58;99396.22;;;5.66;27.61
63321;BME280;49449;48.800;9.534;2023-04-03T11:58:28;99391.25;;;5.71;29.14
63321;BME280;49449;48.800;9.534;2023-04-03T12:00:59;99391.81;;;6.05;28.08
63321;BME280;49449;48.800;9.534;2023-04-03T12:03:57;99390.63;;;6.31;28.79
63321;BME280;49449;48.800;9.534;2023-04-03T12:07:08;99392.94;;;6.49;30.96
63321;BME280;49449;48.800;9.534;2023-04-03T12:10:15;99387.25;;;6.75;32.55
63321;BME280;49449;48.800;9.534;2023-04-03T12:12:58;99386.03;;;6.92;31.00
63321;BME280;49449;48.800;9.534;2023-04-03T12:15:44;99381.31;;;7.02;30.40
63321;BME280;49449;48.800;9.534;2023-04-03T12:21:20;99370.56;;;7.34;28.03
63321;BME280;49449;48.800;9.534;2023-04-03T12:24:04;99377.03;;;7.16;28.72
63321;BME280;49449;48.800;9.534;2023-04-03T12:26:41;99371.72;;;6.80;27.11
63321;BME280;49449;48.800;9.534;2023-04-03T12:29:17;99378.34;;;6.91;26.78
63321;BME280;49449;48.800;9.534;2023-04-03T12:31:55;99370.94;;;6.79;26.51
63321;BME280;49449;48.800;9.534;2023-04-03T12:34:43;99373.81;;;6.84;27.07
63321;BME280;49449;48.800;9.534;2023-04-03T12:37:24;99379.97;;;6.92;28.27
63321;BME280;49449;48.800;9.534;2023-04-03T12:40:07;99379.88;;;6.85;29.54
63321;BME280;49449;48.800;9.534;2023-04-03T12:43:04;99367.56;;;6.71;28.60
63321;BME280;49449;48.800;9.534;2023-04-03T12:45:41;99372.53;;;6.95;28.04
63321;BME280;49449;48.800;9.534;2023-04-03T12:48:16;99360.28;;;7.02;29.38
63321;BME280;49449;48.800;9.534;2023-04-03T12:50:46;99361.00;;;7.11;26.78
63321;BME280;49449;48.800;9.534;2023-04-03T12:53:16;99373.72;;;6.93;26.56
63321;BME280;49449;48.800;9.534;2023-04-03T12:55:47;99360.31;;;6.73;28.91
63321;BME280;49449;48.800;9.534;2023-04-03T12:58:17;99356.91;;;6.72;27.25
63321;BME280;49449;48.800;9.534;2023-04-03T13:00:59;99359.63;;;6.79;27.54
63321;BME280;49449;48.800;9.534;2023-04-03T13:03:28;99354.31;;;6.94;26.22
63321;BME280;49449;48.800;9.534;2023-04-03T13:05:59;99346.88;;;7.12;26.62
63321;BME280;49449;48.800;9.534;2023-04-03T13:08:28;99341.91;;;7.02;26.59
63321;BME280;49449;48.800;9.534;2023-04-03T13:11:01;99338.38;;;7.10;26.35
63321;BME280;49449;48.800;9.534;2023-04-03T13:13:30;99344.00;;;7.07;25.40
63321;BME280;49449;48.800;9.534;2023-04-03T13:15:57;99346.69;;;7.14;25.48
63321;BME280;49449;48.800;9.534;2023-04-03T13:18:28;99333.66;;;7.06;25.81
63321;BME280;49449;48.800;9.534;2023-04-03T13:20:59;99341.03;;;7.17;27.82
63321;BME280;49449;48.800;9.534;2023-04-03T13:23:29;99347.75;;;7.19;27.20
63321;BME280;49449;48.800;9.534;2023-04-03T13:25:59;99338.63;;;7.15;26.61
63321;BME280;49449;48.800;9.534;2023-04-03T13:28:31;99344.53;;;7.02;28.16
63321;BME280;49449;48.800;9.534;2023-04-03T13:31:03;99352.09;;;6.91;27.34
63321;BME280;49449;48.800;9.534;2023-04-03T13:33:34;99355.16;;;6.94;26.66
63321;BME280;49449;48.800;9.534;2023-04-03T13:36:06;99345.22;;;6.75;26.37